This is the latest recevied weather packets stored in our database for station/object E25WRM. If no packets are shown the sender has not sent any weather packets the latest 1 day(s).
| Time | Temp. | Humidity | Pressure | Rain* | Wind** | Luminosity | Snow |
|---|---|---|---|---|---|---|---|
| 1836274211 | 33.89° C | 73% | 1002 hPa | - | 0 m/s | 0 W/m² | - |
| 1836274051 | 33.89° C | 72% | 1003 hPa | - | 0 m/s | 0 W/m² | - |
| 1778039279 | 36.67° C | 53% | 1004 hPa | - | 0 m/s | 0 W/m² | - |
| 1778038369 | 36.11° C | 53% | 1004 hPa | - | 0 m/s | 0 W/m² | - |
| 1778037459 | 36.11° C | 53% | 1005 hPa | - | 0 m/s | 0 W/m² | - |
| 1778036549 | 35.56° C | 54% | 1005 hPa | - | 0 m/s | 0 W/m² | - |
| 1778035639 | 35° C | 51% | 1005 hPa | - | 0 m/s | 0 W/m² | - |
| 1778034729 | 35° C | 49% | 1005 hPa | - | 0 m/s | 0 W/m² | - |
| 1778033819 | 35° C | 49% | 1005 hPa | - | 0 m/s | 0 W/m² | - |
| 1778032909 | 35° C | 50% | 1005 hPa | - | 0 m/s | 0 W/m² | - |
| 1778031999 | 35° C | 50% | 1005 hPa | - | 0 m/s | 0 W/m² | - |
| 1778031089 | 35° C | 50% | 1004 hPa | - | 0 m/s | 0 W/m² | - |
| 1778030179 | 35° C | 51% | 1004 hPa | - | 0 m/s | 0 W/m² | - |
| 1778029269 | 35° C | 51% | 1004 hPa | - | 0 m/s | 0 W/m² | - |
| 1778028359 | 35° C | 51% | 1004 hPa | - | 0 m/s | 0 W/m² | - |
| 1778027449 | 36.11° C | 48% | 1004 hPa | - | 0 m/s | 0 W/m² | - |
| 1778026539 | 34.44° C | 52% | 1004 hPa | - | 0 m/s | 0 W/m² | - |
| 1778025629 | 34.44° C | 51% | 1004 hPa | - | 0 m/s | 0 W/m² | - |
| 1778024719 | 34.44° C | 51% | 1004 hPa | - | 0 m/s | 0 W/m² | - |
| 1778023809 | 34.44° C | 50% | 1004 hPa | - | 0 m/s | 0 W/m² | - |
| 1778022899 | 34.44° C | 48% | 1003 hPa | - | 0 m/s | 0 W/m² | - |
| 1778021989 | 33.89° C | 48% | 1003 hPa | - | 0 m/s | 0 W/m² | - |
| 1778021079 | 34.44° C | 46% | 1003 hPa | - | 0 m/s | 0 W/m² | - |
| 1778020169 | 33.89° C | 45% | 1003 hPa | - | 0 m/s | 0 W/m² | - |
| 1778019259 | 33.89° C | 44% | 1003 hPa | - | 0 m/s | 0 W/m² | - |
* Rain since midnight (hover to see other rain measurements)
** Current wind speed in m/s (hover to see current wind gust speed)